Time;durP1;ratioP1;P1;durP2;ratioP2;P2;SDS_P1;SDS_P2;PMS_P1;PMS_P2;Temp;Humidity;BMP_temperature;BMP_pressure;BME280_temperature;BME280_humidity;BME280_pressure;Samples;Min_cycle;Max_cycle;Signal;HPM_P1;HPM_P2
2021/11/01 00:01:21;;;;;;;11.25;1.50;;;;;;;;;;5068624;28;20079;-87
2021/11/01 00:04:42;;;;;;;14.75;1.88;;;;;;;;;;5071765;28;20267;-87
2021/11/01 00:07:33;;;;;;;18.17;2.58;;;;;;;;;;5064714;28;20112;-87
2021/11/01 00:10:12;;;;;;;12.88;2.20;;;;;;;;;;5059787;28;20044;-87
2021/11/01 00:12:44;;;;;;;16.92;1.92;;;;;;;;;;5067842;28;20484;-87
2021/11/01 00:15:14;;;;;;;13.90;2.00;;;;;;;;;;5068995;28;20045;-87
2021/11/01 00:17:45;;;;;;;15.48;1.85;;;;;;;;;;5071496;28;20243;-87
2021/11/01 00:20:12;;;;;;;13.45;1.75;;;;;;;;;;5068074;28;20040;-87
2021/11/01 00:22:43;;;;;;;18.17;1.95;;;;;;;;;;5067511;28;20060;-86
2021/11/01 00:25:20;;;;;;;15.00;1.88;;;;;;;;;;5082119;28;20058;-87
2021/11/01 00:27:48;;;;;;;13.00;2.10;;;;;;;;;;5065427;28;20059;-86
2021/11/01 00:30:15;;;;;;;12.80;1.38;;;;;;;;;;5065894;28;20046;-86
2021/11/01 00:32:42;;;;;;;13.07;1.63;;;;;;;;;;5065160;28;20300;-86
2021/11/01 00:35:11;;;;;;;13.50;1.80;;;;;;;;;;5064774;28;20060;-86
2021/11/01 00:37:38;;;;;;;14.95;2.25;;;;;;;;;;5081872;28;20044;-86
2021/11/01 00:40:05;;;;;;;21.48;2.13;;;;;;;;;;5066262;28;20316;-86
2021/11/01 00:42:32;;;;;;;17.73;1.95;;;;;;;;;;5082164;28;20040;-86
2021/11/01 00:44:59;;;;;;;25.90;2.38;;;;;;;;;;5078133;28;20064;-86
2021/11/01 00:47:26;;;;;;;12.15;1.75;;;;;;;;;;5084037;28;20052;-86
2021/11/01 00:49:55;;;;;;;19.75;2.10;;;;;;;;;;5065445;28;20052;-86
2021/11/01 00:52:26;;;;;;;18.50;2.30;;;;;;;;;;5081834;28;20048;-86
2021/11/01 00:55:01;;;;;;;17.77;2.10;;;;;;;;;;5062486;28;20318;-85
2021/11/01 00:57:28;;;;;;;19.00;2.00;;;;;;;;;;5054468;28;20063;-86
2021/11/01 00:59:59;;;;;;;23.60;3.17;;;;;;;;;;5064699;28;20053;-86
2021/11/01 01:02:29;;;;;;;14.63;2.20;;;;;;;;;;5082066;28;20486;-86
2021/11/01 01:05:05;;;;;;;21.52;3.03;;;;;;;;;;5064666;28;20041;-86
2021/11/01 01:07:33;;;;;;;14.98;2.28;;;;;;;;;;5081618;28;20052;-86
2021/11/01 01:10:09;;;;;;;20.75;2.58;;;;;;;;;;5052617;28;20229;-87
2021/11/01 01:12:42;;;;;;;18.30;2.60;;;;;;;;;;5064488;28;20048;-86
2021/11/01 01:15:17;;;;;;;15.93;2.40;;;;;;;;;;5064861;28;20476;-86
2021/11/01 01:17:45;;;;;;;18.63;2.03;;;;;;;;;;5064427;28;20048;-87
2021/11/01 01:20:16;;;;;;;23.77;2.47;;;;;;;;;;5076358;28;20110;-86
2021/11/01 01:22:43;;;;;;;26.23;2.85;;;;;;;;;;5075372;28;20051;-87
2021/11/01 01:25:18;;;;;;;17.52;2.30;;;;;;;;;;5088915;28;20045;-86
2021/11/01 01:27:52;;;;;;;21.42;2.03;;;;;;;;;;5084558;28;20056;-87
2021/11/01 01:30:26;;;;;;;17.10;2.35;;;;;;;;;;5066589;28;20047;-87
2021/11/01 01:32:56;;;;;;;29.63;2.65;;;;;;;;;;5083248;28;20060;-87
2021/11/01 01:35:40;;;;;;;19.20;2.63;;;;;;;;;;5078457;28;20052;-86
2021/11/01 01:38:13;;;;;;;25.52;2.88;;;;;;;;;;5062151;28;20052;-86
2021/11/01 01:40:43;;;;;;;24.90;2.95;;;;;;;;;;5062708;28;20413;-87
2021/11/01 01:43:10;;;;;;;22.10;2.67;;;;;;;;;;5063216;28;20059;-87
2021/11/01 01:45:42;;;;;;;18.33;3.05;;;;;;;;;;5062940;28;20044;-87
2021/11/01 01:48:13;;;;;;;21.27;2.53;;;;;;;;;;5062857;28;20060;-86
2021/11/01 01:50:41;;;;;;;22.27;2.75;;;;;;;;;;5082492;28;20168;-86
2021/11/01 01:53:13;;;;;;;22.95;2.72;;;;;;;;;;5066697;28;20048;-86
2021/11/01 01:55:43;;;;;;;23.63;2.58;;;;;;;;;;5082040;28;20128;-86
2021/11/01 01:58:10;;;;;;;19.40;2.00;;;;;;;;;;5080933;28;20053;-86
2021/11/01 02:01:04;;;;;;;24.40;3.03;;;;;;;;;;5062677;28;20474;-86
2021/11/01 02:03:35;;;;;;;27.60;2.70;;;;;;;;;;5063861;28;20143;-87
2021/11/01 02:06:20;;;;;;;23.67;3.10;;;;;;;;;;5063980;28;20151;-87
2021/11/01 02:09:08;;;;;;;28.80;3.63;;;;;;;;;;5063860;28;20112;-87
2021/11/01 02:11:38;;;;;;;20.30;2.78;;;;;;;;;;5063436;28;20048;-87
2021/11/01 02:14:10;;;;;;;19.75;2.70;;;;;;;;;;5081447;28;20299;-87
2021/11/01 02:16:38;;;;;;;24.33;2.55;;;;;;;;;;5080644;28;20520;-87
2021/11/01 02:19:10;;;;;;;16.48;2.08;;;;;;;;;;5063160;28;20052;-87
2021/11/01 02:21:57;;;;;;;29.13;3.28;;;;;;;;;;5080506;28;20344;-87
2021/11/01 02:24:44;;;;;;;26.85;4.13;;;;;;;;;;5033340;28;20049;-87
2021/11/01 02:27:12;;;;;;;21.75;3.47;;;;;;;;;;5044091;28;20060;-86
2021/11/01 02:29:41;;;;;;;23.40;3.13;;;;;;;;;;5043675;28;20060;-86
2021/11/01 02:32:10;;;;;;;25.40;2.65;;;;;;;;;;5061862;28;20071;-86
2021/11/01 02:34:41;;;;;;;26.50;3.22;;;;;;;;;;5059418;28;20059;-86
2021/11/01 02:37:11;;;;;;;21.58;3.30;;;;;;;;;;5043625;28;20051;-85
2021/11/01 02:39:54;;;;;;;17.73;2.97;;;;;;;;;;5043168;28;20041;-86
2021/11/01 02:42:31;;;;;;;30.05;4.07;;;;;;;;;;5046062;28;20049;-86
2021/11/01 02:45:00;;;;;;;24.58;3.33;;;;;;;;;;5064761;28;20060;-86
2021/11/01 02:47:30;;;;;;;24.73;3.08;;;;;;;;;;5065498;28;20087;-86
2021/11/01 02:49:59;;;;;;;23.92;3.60;;;;;;;;;;5045883;28;20152;-86
2021/11/01 02:52:28;;;;;;;28.13;4.07;;;;;;;;;;5063559;28;20055;-86
2021/11/01 02:54:55;;;;;;;24.17;2.85;;;;;;;;;;5062604;28;20112;-86
2021/11/01 02:57:24;;;;;;;26.35;4.15;;;;;;;;;;5043234;28;20049;-86
2021/11/01 02:59:52;;;;;;;19.83;3.00;;;;;;;;;;5042741;28;20215;-86
2021/11/01 03:02:20;;;;;;;35.35;3.95;;;;;;;;;;5043433;28;20045;-86
2021/11/01 03:04:49;;;;;;;25.88;3.80;;;;;;;;;;5043290;28;20336;-86
2021/11/01 03:07:17;;;;;;;22.65;3.40;;;;;;;;;;5062473;28;20072;-86
2021/11/01 03:09:45;;;;;;;23.88;4.22;;;;;;;;;;5055993;28;20091;-86
2021/11/01 03:12:16;;;;;;;20.70;3.45;;;;;;;;;;5068193;28;20312;-85
2021/11/01 03:14:49;;;;;;;27.92;3.90;;;;;;;;;;5058341;28;20052;-86
2021/11/01 03:17:23;;;;;;;26.00;3.85;;;;;;;;;;5041416;28;20048;-86
2021/11/01 03:20:01;;;;;;;27.95;3.75;;;;;;;;;;5056285;28;20135;-86
2021/11/01 03:22:43;;;;;;;29.50;3.67;;;;;;;;;;5044858;28;20139;-86
2021/11/01 03:25:16;;;;;;;23.17;3.60;;;;;;;;;;5058438;28;20483;-86
2021/11/01 03:27:44;;;;;;;23.92;3.50;;;;;;;;;;5059272;28;20045;-86
2021/11/01 03:30:12;;;;;;;25.98;3.50;;;;;;;;;;5059760;28;20120;-85
2021/11/01 03:32:45;;;;;;;29.95;3.67;;;;;;;;;;5060132;28;20298;-86
2021/11/01 03:35:12;;;;;;;26.85;3.58;;;;;;;;;;5070638;28;20211;-86
2021/11/01 03:37:40;;;;;;;23.65;4.10;;;;;;;;;;5075115;28;20055;-86
2021/11/01 03:40:09;;;;;;;27.35;4.07;;;;;;;;;;5093735;28;20120;-86
2021/11/01 03:42:36;;;;;;;22.73;3.78;;;;;;;;;;5093637;28;20066;-86
2021/11/01 03:45:05;;;;;;;28.02;4.28;;;;;;;;;;5093788;28;20056;-86
2021/11/01 03:47:38;;;;;;;26.40;4.05;;;;;;;;;;5093244;28;20038;-86
2021/11/01 03:50:32;;;;;;;29.75;4.40;;;;;;;;;;5077430;28;20056;-86
2021/11/01 03:53:04;;;;;;;26.60;4.72;;;;;;;;;;5067208;28;20138;-86
2021/11/01 03:55:34;;;;;;;32.33;4.75;;;;;;;;;;5080305;28;20083;-87
2021/11/01 03:58:04;;;;;;;26.98;4.50;;;;;;;;;;5063856;28;20151;-87
2021/11/01 04:00:34;;;;;;;25.33;4.95;;;;;;;;;;5061394;28;20045;-87
2021/11/01 04:03:09;;;;;;;34.28;5.63;;;;;;;;;;5059899;28;20070;-87
2021/11/01 04:05:40;;;;;;;25.15;5.20;;;;;;;;;;5060830;28;20121;-87
2021/11/01 04:08:25;;;;;;;21.40;4.78;;;;;;;;;;5060045;28;20116;-87
2021/11/01 04:10:53;;;;;;;27.85;5.65;;;;;;;;;;5058752;28;20055;-87
2021/11/01 04:13:29;;;;;;;29.75;5.88;;;;;;;;;;5060251;28;20106;-87
2021/11/01 04:16:08;;;;;;;28.38;5.32;;;;;;;;;;5075536;28;20048;-87
2021/11/01 04:18:49;;;;;;;28.25;6.18;;;;;;;;;;5057766;28;20051;-86
2021/11/01 04:21:16;;;;;;;40.65;7.60;;;;;;;;;;5056536;28;20049;-86
2021/11/01 04:23:43;;;;;;;31.20;6.07;;;;;;;;;;5058487;28;20096;-87
2021/11/01 04:26:14;;;;;;;27.55;5.50;;;;;;;;;;5072102;28;20055;-87
2021/11/01 04:28:41;;;;;;;34.13;7.40;;;;;;;;;;5073928;28;20047;-87
2021/11/01 04:31:18;;;;;;;34.05;6.93;;;;;;;;;;5076138;28;20045;-88
2021/11/01 04:33:45;;;;;;;30.85;5.80;;;;;;;;;;5072719;28;20112;-88
2021/11/01 04:36:17;;;;;;;20.35;5.85;;;;;;;;;;5061258;28;20044;-87
2021/11/01 04:41:24;;;;;;;27.40;7.18;;;;;;;;;;5079490;28;20053;-87
2021/11/01 04:54:53;;;;;;;27.92;5.43;;;;;;;;;;5080171;28;20149;-87
2021/11/01 04:57:20;;;;;;;27.83;5.30;;;;;;;;;;5062982;28;20067;-87
2021/11/01 04:59:50;;;;;;;23.58;5.63;;;;;;;;;;5063523;28;20090;-87
2021/11/01 05:02:24;;;;;;;24.10;6.32;;;;;;;;;;5061988;28;20323;-87
2021/11/01 05:04:52;;;;;;;25.35;5.93;;;;;;;;;;5062571;28;20102;-87
2021/11/01 05:07:23;;;;;;;20.40;5.22;;;;;;;;;;5060092;28;20394;-88
2021/11/01 05:10:02;;;;;;;22.45;5.55;;;;;;;;;;5079439;28;20260;-87
2021/11/01 05:12:39;;;;;;;28.35;5.57;;;;;;;;;;5080626;28;20565;-88
2021/11/01 05:15:24;;;;;;;26.58;5.55;;;;;;;;;;5060883;28;20423;-88
2021/11/01 05:18:13;;;;;;;25.60;4.45;;;;;;;;;;5079758;28;20044;-87
2021/11/01 05:20:52;;;;;;;20.52;4.38;;;;;;;;;;5079961;28;20396;-88
2021/11/01 05:25:59;;;;;;;25.40;5.05;;;;;;;;;;5080053;28;20083;-88
2021/11/01 05:31:23;;;;;;;23.70;5.57;;;;;;;;;;5057238;28;20506;-88
2021/11/01 05:33:54;;;;;;;26.92;5.45;;;;;;;;;;5077807;28;20044;-88
2021/11/01 05:36:31;;;;;;;30.42;6.10;;;;;;;;;;5076444;28;20045;-88
2021/11/01 05:39:00;;;;;;;22.40;5.22;;;;;;;;;;5056819;28;20105;-87
2021/11/01 05:41:32;;;;;;;21.70;5.15;;;;;;;;;;5062117;28;20319;-87
2021/11/01 05:44:04;;;;;;;31.63;5.70;;;;;;;;;;5053373;28;20060;-87
2021/11/01 05:46:44;;;;;;;21.90;5.40;;;;;;;;;;5038419;28;20321;-88
2021/11/01 05:49:17;;;;;;;31.08;6.10;;;;;;;;;;5037385;28;20180;-87
2021/11/01 05:51:47;;;;;;;23.20;5.50;;;;;;;;;;5056916;28;20118;-87
2021/11/01 05:54:17;;;;;;;24.80;5.18;;;;;;;;;;5056999;28;20196;-87
2021/11/01 05:59:47;;;;;;;30.10;7.45;;;;;;;;;;5075235;28;20052;-87
2021/11/01 06:05:14;;;;;;;26.65;7.03;;;;;;;;;;5082668;28;20052;-87
2021/11/01 06:07:48;;;;;;;34.08;7.40;;;;;;;;;;5082001;28;20140;-87
2021/11/01 06:15:42;;;;;;;29.08;7.13;;;;;;;;;;5084243;28;20383;-88
2021/11/01 06:18:17;;;;;;;23.95;6.70;;;;;;;;;;5059219;28;20147;-87
2021/11/01 06:20:53;;;;;;;23.08;7.05;;;;;;;;;;5057585;28;20384;-87
2021/11/01 06:23:31;;;;;;;31.70;7.40;;;;;;;;;;5056925;28;20123;-87
2021/11/01 06:26:26;;;;;;;21.42;7.53;;;;;;;;;;5072307;28;20058;-87
2021/11/01 06:28:57;;;;;;;30.13;6.57;;;;;;;;;;5052873;28;20048;-87
2021/11/01 06:31:32;;;;;;;29.13;7.60;;;;;;;;;;5069614;28;20048;-87
2021/11/01 07:14:27;;;;;;;15.05;3.08;;;;;;;;;;5067217;28;20071;-87
2021/11/01 07:17:11;;;;;;;18.05;3.50;;;;;;;;;;5035623;28;20178;-87
2021/11/01 07:20:05;;;;;;;30.60;3.60;;;;;;;;;;5047297;28;20075;-87
2021/11/01 07:26:09;;;;;;;19.83;3.28;;;;;;;;;;5081536;28;20056;-87
2021/11/01 08:23:22;;;;;;;10.40;2.13;;;;;;;;;;5076291;28;20432;-89
2021/11/01 08:45:30;;;;;;;15.43;1.95;;;;;;;;;;5077543;28;20059;-88
2021/11/01 08:48:36;;;;;;;10.10;1.60;;;;;;;;;;5050555;28;20337;-87
2021/11/01 09:02:45;;;;;;;10.27;1.73;;;;;;;;;;5054414;28;20241;-87
2021/11/01 09:05:54;;;;;;;11.05;1.90;;;;;;;;;;5056362;28;20097;-87
2021/11/01 09:11:59;;;;;;;7.35;1.23;;;;;;;;;;5068363;28;20059;-87
2021/11/01 09:19:56;;;;;;;7.22;1.85;;;;;;;;;;5089087;28;20106;-86
2021/11/01 09:25:18;;;;;;;10.00;1.73;;;;;;;;;;5063516;28;20059;-87
2021/11/01 09:36:18;;;;;;;10.43;2.00;;;;;;;;;;5074240;28;20271;-86
2021/11/01 09:41:32;;;;;;;10.05;2.00;;;;;;;;;;5073533;28;20052;-86
2021/11/01 09:44:08;;;;;;;10.98;1.90;;;;;;;;;;5063962;28;20080;-86
2021/11/01 09:46:40;;;;;;;11.85;2.38;;;;;;;;;;5072774;28;20052;-86
2021/11/01 09:49:16;;;;;;;10.18;2.03;;;;;;;;;;5072401;28;20053;-86
2021/11/01 09:51:45;;;;;;;11.40;2.10;;;;;;;;;;5071469;28;20050;-86
2021/11/01 09:54:22;;;;;;;11.13;2.78;;;;;;;;;;5071250;28;20040;-85
2021/11/01 09:59:38;;;;;;;7.88;2.15;;;;;;;;;;5084406;28;20044;-86
2021/11/01 10:02:12;;;;;;;5.40;2.47;;;;;;;;;;5095528;28;20134;-86
2021/11/01 10:04:44;;;;;;;6.70;2.22;;;;;;;;;;5075303;28;20241;-84
2021/11/01 10:07:19;;;;;;;7.88;2.10;;;;;;;;;;5078070;28;20251;-84
2021/11/01 10:09:53;;;;;;;15.85;2.10;;;;;;;;;;5081091;28;20201;-85
2021/11/01 10:12:30;;;;;;;7.70;1.88;;;;;;;;;;5056750;28;20048;-85
2021/11/01 10:17:33;;;;;;;7.60;2.00;;;;;;;;;;5073909;28;20051;-85
2021/11/01 10:17:55;;;;;;;10.50;2.10;;;;;;;;;;5074006;28;20463;-85
2021/11/01 10:20:41;;;;;;;5.97;1.92;;;;;;;;;;5075108;28;20218;-85
2021/11/01 10:23:20;;;;;;;8.07;1.83;;;;;;;;;;5056658;28;20064;-86
2021/11/01 10:25:47;;;;;;;10.35;1.85;;;;;;;;;;5073156;28;20045;-86
2021/11/01 10:28:28;;;;;;;11.18;1.98;;;;;;;;;;5055873;28;20052;-84
2021/11/01 10:31:26;;;;;;;13.57;2.20;;;;;;;;;;5055477;28;20049;-84
2021/11/01 10:34:07;;;;;;;11.35;2.13;;;;;;;;;;5072643;28;20092;-85
2021/11/01 10:36:38;;;;;;;10.52;2.00;;;;;;;;;;5075008;28;20556;-85
2021/11/01 10:39:09;;;;;;;14.05;1.90;;;;;;;;;;5067707;28;20527;-84
2021/11/01 10:47:55;;;;;;;10.23;2.25;;;;;;;;;;5050953;28;20072;-85
2021/11/01 11:10:50;;;;;;;7.15;1.60;;;;;;;;;;5072213;28;20249;-85
2021/11/01 11:11:06;;;;;;;10.65;1.60;;;;;;;;;;5072547;28;20086;-83
2021/11/01 11:13:43;;;;;;;7.93;2.13;;;;;;;;;;5053384;28;20098;-85
2021/11/01 11:16:51;;;;;;;8.68;1.60;;;;;;;;;;5055115;28;20079;-84
2021/11/01 11:24:48;;;;;;;7.15;1.58;;;;;;;;;;5049179;28;20241;-85
2021/11/01 11:31:30;;;;;;;4.88;1.70;;;;;;;;;;5047311;28;20032;-86
2021/11/01 11:40:02;;;;;;;7.18;1.25;;;;;;;;;;5054059;28;20048;-85
2021/11/01 11:48:22;;;;;;;5.20;1.58;;;;;;;;;;5054857;28;20519;-83
2021/11/01 11:50:52;;;;;;;8.55;1.48;;;;;;;;;;5035345;28;20049;-85
2021/11/01 11:53:24;;;;;;;9.48;1.83;;;;;;;;;;5034321;28;20518;-84
2021/11/01 11:56:04;;;;;;;10.48;2.13;;;;;;;;;;5051566;28;20110;-84
2021/11/01 11:58:39;;;;;;;8.57;1.50;;;;;;;;;;5051772;28;20203;-84
2021/11/01 12:01:22;;;;;;;5.30;1.63;;;;;;;;;;5033168;28;20076;-84
2021/11/01 12:03:51;;;;;;;5.27;1.57;;;;;;;;;;5034278;28;20144;-85
2021/11/01 12:06:43;;;;;;;9.63;1.58;;;;;;;;;;5051850;28;20287;-84
2021/11/01 12:09:28;;;;;;;7.07;1.45;;;;;;;;;;5028507;28;20056;-84
2021/11/01 12:17:31;;;;;;;15.20;1.90;;;;;;;;;;5063048;28;20071;-84
2021/11/01 12:20:09;;;;;;;8.70;1.63;;;;;;;;;;5041917;28;20045;-84
2021/11/01 12:22:43;;;;;;;9.45;1.58;;;;;;;;;;5060761;28;20229;-84
2021/11/01 12:25:21;;;;;;;7.28;1.58;;;;;;;;;;5081413;28;20032;-85
2021/11/01 12:28:00;;;;;;;10.38;1.60;;;;;;;;;;5072826;28;20121;-84
2021/11/01 12:30:39;;;;;;;7.28;1.70;;;;;;;;;;5070593;28;20302;-85
2021/11/01 12:33:17;;;;;;;7.25;1.40;;;;;;;;;;5034659;28;20049;-84
2021/11/01 12:35:50;;;;;;;8.18;1.63;;;;;;;;;;5048050;28;20438;-85
2021/11/01 12:38:28;;;;;;;10.63;1.65;;;;;;;;;;5045799;28;20234;-85
2021/11/01 12:41:11;;;;;;;5.70;1.30;;;;;;;;;;5033297;28;20248;-84
2021/11/01 12:57:31;;;;;;;7.78;1.50;;;;;;;;;;5046046;28;19919;-84
2021/11/01 12:59:58;;;;;;;5.00;1.35;;;;;;;;;;5033360;28;20044;-84
2021/11/01 13:02:29;;;;;;;8.75;1.60;;;;;;;;;;5032779;28;20122;-84
2021/11/01 13:05:00;;;;;;;7.25;1.58;;;;;;;;;;5027791;28;20595;-84
2021/11/01 13:20:39;;;;;;;11.02;1.65;;;;;;;;;;5073809;28;20067;-83
2021/11/01 13:23:09;;;;;;;10.63;1.60;;;;;;;;;;5051588;28;20068;-83
2021/11/01 13:25:50;;;;;;;5.68;1.00;;;;;;;;;;5058830;28;20135;-83
2021/11/01 13:37:21;;;;;;;6.40;1.42;;;;;;;;;;5047040;28;20049;-84
2021/11/01 13:40:03;;;;;;;12.18;1.83;;;;;;;;;;5024069;28;20360;-84
2021/11/01 13:42:36;;;;;;;6.15;1.48;;;;;;;;;;5013750;28;20238;-84
2021/11/01 13:45:17;;;;;;;8.95;1.50;;;;;;;;;;5027016;28;20330;-84
2021/11/01 13:47:52;;;;;;;5.13;1.17;;;;;;;;;;5030922;28;20055;-84
2021/11/01 13:50:25;;;;;;;3.75;1.10;;;;;;;;;;5057289;28;20045;-84
2021/11/01 13:52:56;;;;;;;8.32;1.17;;;;;;;;;;5037337;28;20219;-84
2021/11/01 13:55:33;;;;;;;6.32;1.60;;;;;;;;;;5044737;28;20051;-84
2021/11/01 13:58:13;;;;;;;8.40;1.88;;;;;;;;;;5061913;28;20061;-84
2021/11/01 14:30:51;;;;;;;21.75;10.90;;;;;;;;;;5059895;28;20238;-84
2021/11/01 14:33:56;;;;;;;9.20;2.10;;;;;;;;;;5060910;28;20259;-85
2021/11/01 15:09:58;;;;;;;6.18;1.67;;;;;;;;;;5046789;28;20052;-84
2021/11/01 15:15:06;;;;;;;9.55;4.10;;;;;;;;;;5044546;28;20067;-85
2021/11/01 15:17:49;;;;;;;6.80;1.70;;;;;;;;;;5030097;28;20135;-84
2021/11/01 15:28:58;;;;;;;9.18;4.05;;;;;;;;;;5069946;28;20048;-84
2021/11/01 16:18:09;;;;;;;4.18;1.35;;;;;;;;;;5070586;28;20036;-83
2021/11/01 16:20:36;;;;;;;6.15;1.63;;;;;;;;;;5082470;28;20063;-84
2021/11/01 16:25:35;;;;;;;8.15;2.05;;;;;;;;;;5069270;28;20048;-84
2021/11/01 16:28:07;;;;;;;8.32;2.00;;;;;;;;;;5052154;28;20052;-84
2021/11/01 16:30:37;;;;;;;5.28;1.88;;;;;;;;;;5050293;28;20186;-84
2021/11/01 16:33:08;;;;;;;9.50;1.90;;;;;;;;;;5061596;28;20548;-84
2021/11/01 16:35:42;;;;;;;8.48;2.15;;;;;;;;;;5049096;28;20067;-84
2021/11/01 16:38:21;;;;;;;6.68;1.92;;;;;;;;;;5031575;28;20053;-84
2021/11/01 16:40:51;;;;;;;4.18;1.70;;;;;;;;;;5032111;28;20752;-84
2021/11/01 16:43:21;;;;;;;9.98;2.20;;;;;;;;;;5042383;28;20335;-83
2021/11/01 16:45:52;;;;;;;11.63;2.42;;;;;;;;;;5052075;28;20052;-84
2021/11/01 16:48:22;;;;;;;7.95;3.08;;;;;;;;;;5050214;28;20084;-83
2021/11/01 16:50:56;;;;;;;10.40;2.40;;;;;;;;;;5051484;28;20053;-84
2021/11/01 16:53:24;;;;;;;9.30;2.00;;;;;;;;;;5070118;28;20041;-84
2021/11/01 16:55:51;;;;;;;8.05;2.00;;;;;;;;;;5071038;28;20099;-84
2021/11/01 16:58:24;;;;;;;9.45;2.38;;;;;;;;;;5053924;28;20063;-83
2021/11/01 17:01:04;;;;;;;8.48;2.30;;;;;;;;;;5069275;28;20056;-83
2021/11/01 17:25:48;;;;;;;12.93;3.03;;;;;;;;;;5034722;28;20147;-84
2021/11/01 17:28:30;;;;;;;7.10;2.42;;;;;;;;;;5088386;28;20075;-84
2021/11/01 17:36:44;;;;;;;8.52;2.20;;;;;;;;;;5088687;28;20262;-83
2021/11/01 18:46:43;;;;;;;6.20;2.40;;;;;;;;;;5072240;28;20100;-83
2021/11/01 18:52:23;;;;;;;10.93;2.88;;;;;;;;;;5058917;28;20060;-83
2021/11/01 18:54:53;;;;;;;10.60;3.58;;;;;;;;;;5059495;28;20049;-84
2021/11/01 18:57:28;;;;;;;9.82;3.13;;;;;;;;;;5071271;28;20258;-84
2021/11/01 18:59:58;;;;;;;14.07;3.13;;;;;;;;;;5071470;28;20149;-84
2021/11/01 19:02:41;;;;;;;9.75;3.03;;;;;;;;;;5049907;28;20282;-85
2021/11/01 19:11:02;;;;;;;11.15;2.40;;;;;;;;;;5063580;28;20226;-84
2021/11/01 21:24:29;;;;;;;8.40;2.28;;;;;;;;;;5056129;28;20110;-85
2021/11/01 21:28:29;;;;;;;6.63;2.22;;;;;;;;;;5066708;28;20340;-85
2021/11/01 21:30:55;;;;;;;9.13;2.80;;;;;;;;;;5063409;28;20044;-84
2021/11/01 21:33:23;;;;;;;4.28;2.00;;;;;;;;;;5052132;28;20076;-84
2021/11/01 21:35:54;;;;;;;13.52;2.47;;;;;;;;;;5057507;28;20049;-84
2021/11/01 21:38:22;;;;;;;8.77;2.63;;;;;;;;;;5067977;28;20323;-84
2021/11/01 21:40:49;;;;;;;8.52;2.15;;;;;;;;;;5064560;28;20049;-83
2021/11/01 21:43:17;;;;;;;7.38;1.95;;;;;;;;;;5053368;28;20106;-84
2021/11/01 21:45:46;;;;;;;10.18;2.88;;;;;;;;;;5043347;28;20084;-85
2021/11/01 21:48:13;;;;;;;6.70;2.40;;;;;;;;;;5050596;28;20067;-85
2021/11/01 21:50:44;;;;;;;8.18;2.15;;;;;;;;;;5051026;28;20044;-85
2021/11/01 21:53:12;;;;;;;7.25;2.58;;;;;;;;;;5050387;28;20542;-85
2021/11/01 21:55:42;;;;;;;11.73;2.15;;;;;;;;;;5053463;28;20066;-83
2021/11/01 21:58:25;;;;;;;5.05;1.88;;;;;;;;;;5042891;28;20077;-83
2021/11/01 22:17:40;;;;;;;8.07;2.33;;;;;;;;;;5033987;28;20122;-84
2021/11/01 22:33:31;;;;;;;11.15;2.60;;;;;;;;;;5075519;28;20079;-84
2021/11/01 22:57:45;;;;;;;6.63;1.92;;;;;;;;;;5066424;28;20220;-84
2021/11/01 23:00:23;;;;;;;11.77;2.15;;;;;;;;;;5053768;28;20293;-83
2021/11/01 23:03:00;;;;;;;8.63;2.22;;;;;;;;;;5067550;28;20259;-84
2021/11/01 23:06:09;;;;;;;5.97;1.83;;;;;;;;;;5070073;28;20207;-84
2021/11/01 23:33:27;;;;;;;5.88;2.15;;;;;;;;;;5069410;28;20045;-84
2021/11/01 23:35:57;;;;;;;8.15;2.42;;;;;;;;;;5054631;28;20099;-84
2021/11/01 23:38:27;;;;;;;6.20;2.03;;;;;;;;;;5054144;28;20059;-84
2021/11/01 23:40:56;;;;;;;10.57;2.40;;;;;;;;;;5072344;28;20380;-84
2021/11/01 23:43:27;;;;;;;10.90;2.45;;;;;;;;;;5066865;28;20300;-84
2021/11/01 23:46:05;;;;;;;6.43;1.90;;;;;;;;;;5060675;28;20045;-84
2021/11/01 23:48:34;;;;;;;5.90;2.20;;;;;;;;;;5065778;28;20049;-84
2021/11/01 23:51:01;;;;;;;7.40;2.17;;;;;;;;;;5064923;28;20173;-84
2021/11/01 23:53:47;;;;;;;6.78;1.98;;;;;;;;;;5058872;28;20052;-84
2021/11/01 23:56:21;;;;;;;14.32;1.92;;;;;;;;;;5056550;28;20329;-84
2021/11/01 23:58:49;;;;;;;4.97;1.65;;;;;;;;;;5055352;28;20049;-84
